createdAt,value
2018-12-14T00:03:20.449Z,102049.91
2018-12-14T00:08:25.254Z,102052.88
2018-12-14T00:13:28.226Z,102046.44
2018-12-14T00:18:31.302Z,102044.77
2018-12-14T00:23:34.147Z,102049.48
2018-12-14T00:28:36.947Z,102049.92
2018-12-14T00:33:39.795Z,102057.63
2018-12-14T00:38:42.747Z,102055.92
2018-12-14T00:43:45.440Z,102056.78
2018-12-14T00:54:27.256Z,102075.62
2018-12-14T00:59:30.062Z,102080.85
2018-12-14T01:04:32.953Z,102081.66
2018-12-14T01:09:35.907Z,102087.14
2018-12-14T01:14:40.845Z,102093.14
2018-12-14T01:19:43.935Z,102095.67
2018-12-14T01:24:47.630Z,102096.95
2018-12-14T01:29:50.413Z,102083.25
2018-12-14T01:34:53.230Z,102089.28
2018-12-14T01:39:55.974Z,102082.82
2018-12-14T01:44:58.782Z,102087.09
2018-12-14T01:50:01.808Z,102081.91
2018-12-14T01:55:05.445Z,102081.02
2018-12-14T02:00:08.486Z,102081.02
2018-12-14T02:05:11.369Z,102078.44
2018-12-14T02:10:14.257Z,102078.82
2018-12-14T02:15:17.145Z,102076.25
2018-12-14T02:20:19.895Z,102075.83
2018-12-14T02:25:22.797Z,102075.39
2018-12-14T02:30:46.582Z,102071.55
2018-12-14T02:41:02.183Z,102076.68
2018-12-14T02:46:05.074Z,102075.88
2018-12-14T02:51:07.845Z,102082.34
2018-12-14T02:56:10.822Z,102077.73
2018-12-14T03:01:13.688Z,102077.81
2018-12-14T03:06:16.733Z,102077.47
2018-12-14T03:11:19.478Z,102082.65
2018-12-14T03:16:22.271Z,102081.02
2018-12-14T03:21:25.020Z,102079.77
2018-12-14T03:26:27.831Z,102079.30
2018-12-14T03:31:30.672Z,102081.01
2018-12-14T03:36:33.481Z,102078.05
2018-12-14T03:41:36.594Z,102082.34
2018-12-14T03:46:39.486Z,102082.77
2018-12-14T03:51:42.581Z,102078.56
2018-12-14T03:56:45.649Z,102076.02
2018-12-14T04:01:48.510Z,102082.02
2018-12-14T04:06:51.357Z,102079.38
2018-12-14T04:11:54.193Z,102082.38
2018-12-14T04:16:57.349Z,102085.33
2018-12-14T04:22:00.168Z,102086.19
2018-12-14T04:27:03.038Z,102085.30
2018-12-14T04:32:06.829Z,102087.43
2018-12-14T04:37:09.594Z,102088.33
2018-12-14T04:42:12.229Z,102090.08
2018-12-14T04:47:15.469Z,102091.82
2018-12-14T04:52:18.241Z,102092.21
2018-12-14T04:57:20.980Z,102083.23
2018-12-14T05:02:23.657Z,102084.51
2018-12-14T05:07:26.754Z,102088.83
2018-12-14T05:12:29.683Z,102090.47
2018-12-14T05:17:32.739Z,102090.04
2018-12-14T05:22:35.561Z,102094.78
2018-12-14T05:27:38.439Z,102097.78
2018-12-14T05:32:41.233Z,102097.81
2018-12-14T05:37:44.154Z,102103.77
2018-12-14T05:42:47.866Z,102103.34
2018-12-14T05:47:50.564Z,102112.33
2018-12-14T05:52:53.294Z,102114.90
2018-12-14T05:57:55.951Z,102102.52
2018-12-14T06:02:58.719Z,102110.66
2018-12-14T06:08:01.402Z,102114.05
2018-12-14T06:13:09.090Z,102118.78
2018-12-14T06:18:09.182Z,102116.22
2018-12-14T06:23:11.967Z,102127.77
2018-12-14T06:28:14.641Z,102129.91
2018-12-14T06:33:17.432Z,102135.05
2018-12-14T06:38:20.293Z,102138.92
2018-12-14T06:43:23.572Z,102146.66
2018-12-14T06:48:26.448Z,102148.37
2018-12-14T06:53:29.751Z,102154.76
2018-12-14T06:58:32.703Z,102153.50
2018-12-14T07:03:35.709Z,102155.22
2018-12-14T07:08:38.528Z,102157.35
2018-12-14T07:13:41.337Z,102162.48
2018-12-14T07:18:45.694Z,102170.19
2018-12-14T07:23:48.449Z,102167.23
2018-12-14T07:28:52.229Z,102167.23
2018-12-14T07:33:54.949Z,102167.66
2018-12-14T07:38:57.997Z,102177.89
2018-12-14T07:44:00.849Z,102179.18
2018-12-14T07:49:03.894Z,102183.88
2018-12-14T07:54:06.877Z,102195.89
2018-12-14T07:59:10.508Z,102192.87
2018-12-14T08:04:13.618Z,102204.00
2018-12-14T08:09:16.617Z,102205.70
2018-12-14T08:14:19.625Z,102205.68
2018-12-14T08:19:22.291Z,102214.23
2018-12-14T08:24:25.161Z,102224.05
2018-12-14T08:29:28.272Z,102223.22
2018-12-14T08:34:31.138Z,102228.36
2018-12-14T08:39:34.612Z,102228.80
2018-12-14T08:44:37.632Z,102229.63
2018-12-14T08:49:40.850Z,102233.05
2018-12-14T08:54:43.689Z,102241.58
2018-12-14T08:59:46.421Z,102242.86
2018-12-14T09:04:49.452Z,102255.27
2018-12-14T09:09:52.269Z,102250.97
2018-12-14T09:14:54.993Z,102253.97
2018-12-14T09:19:58.225Z,102256.97
2018-12-14T09:25:02.048Z,102258.65
2018-12-14T09:30:06.261Z,102268.95
2018-12-14T09:35:09.449Z,102262.05
2018-12-14T09:40:12.633Z,102264.59
2018-12-14T09:45:15.836Z,102264.59
2018-12-14T09:50:18.988Z,102267.19
2018-12-14T09:55:21.848Z,102263.73
2018-12-14T10:00:24.790Z,102270.16
2018-12-14T10:05:27.707Z,102263.30
2018-12-14T10:10:30.725Z,102256.86
2018-12-14T10:15:33.712Z,102260.68
2018-12-14T10:20:36.764Z,102267.53
2018-12-14T10:25:39.962Z,102264.94
2018-12-14T10:30:42.813Z,102270.47
2018-12-14T10:35:45.792Z,102267.02
2018-12-14T10:40:49.057Z,102267.81
2018-12-14T10:45:52.801Z,102261.84
2018-12-14T10:50:55.883Z,102255.45
2018-12-14T10:55:58.955Z,102251.56
2018-12-14T11:01:07.758Z,102254.50
2018-12-14T11:06:10.743Z,102248.50
2018-12-14T11:11:13.675Z,102252.36
2018-12-14T11:16:17.273Z,102250.64
2018-12-14T11:21:20.206Z,102260.09
2018-12-14T11:26:23.092Z,102254.92
2018-12-14T11:31:25.916Z,102263.06
2018-12-14T11:36:29.438Z,102264.28
2018-12-14T11:41:32.566Z,102269.09
2018-12-14T11:46:35.184Z,102274.20
2018-12-14T11:51:38.761Z,102283.59
2018-12-14T11:56:41.573Z,102280.59
2018-12-14T12:01:44.395Z,102276.27
2018-12-14T12:06:47.345Z,102279.24
2018-12-14T12:11:50.050Z,102276.24
2018-12-14T12:16:52.922Z,102276.67
2018-12-14T12:21:55.922Z,102273.20
2018-12-14T12:26:58.764Z,102269.81
2018-12-14T12:32:01.776Z,102269.35
2018-12-14T12:37:04.790Z,102268.95
2018-12-14T12:42:07.620Z,102271.99
2018-12-14T12:47:11.613Z,102269.42
2018-12-14T12:52:14.607Z,102272.81
2018-12-14T12:57:17.821Z,102276.70
2018-12-14T13:02:20.653Z,102270.73
2018-12-14T13:07:23.848Z,102264.73
2018-12-14T13:12:27.212Z,102272.02
2018-12-14T13:17:29.969Z,102279.34
2018-12-14T13:22:32.701Z,102284.94
2018-12-14T13:27:35.724Z,102290.05
2018-12-14T13:32:38.783Z,102292.19
2018-12-14T13:37:41.886Z,102289.62
2018-12-14T13:42:44.885Z,102298.25
2018-12-14T13:47:48.020Z,102300.82
2018-12-14T13:52:50.809Z,102304.25
2018-12-14T13:57:53.839Z,102299.97
2018-12-14T14:02:56.639Z,102307.67
2018-12-14T14:07:59.633Z,102298.30
2018-12-14T14:13:02.594Z,102309.01
2018-12-14T14:18:05.562Z,102309.86
2018-12-14T14:23:08.745Z,102311.16
2018-12-14T14:28:11.448Z,102313.72
2018-12-14T14:33:14.574Z,102317.17
2018-12-14T14:38:18.214Z,102322.71
2018-12-14T14:43:21.351Z,102330.85
2018-12-14T14:48:24.181Z,102334.73
2018-12-14T14:53:27.000Z,102339.41
2018-12-14T14:58:29.896Z,102340.27
2018-12-14T15:03:32.847Z,102337.27
2018-12-14T15:08:35.879Z,102335.16
2018-12-14T15:13:38.865Z,102336.45
2018-12-14T15:18:41.812Z,102350.15
2018-12-14T15:23:44.842Z,102352.29
2018-12-14T15:28:47.529Z,102347.60
2018-12-14T15:33:50.254Z,102350.61
2018-12-14T15:38:53.132Z,102349.76
2018-12-14T15:43:56.142Z,102355.33
2018-12-14T15:48:59.055Z,102366.45
2018-12-14T15:54:01.807Z,102372.45
2018-12-14T15:59:05.042Z,102366.89
2018-12-14T16:04:08.049Z,102372.03
2018-12-14T16:09:11.116Z,102375.87
2018-12-14T16:14:14.672Z,102374.58
2018-12-14T16:19:17.721Z,102379.28
2018-12-14T16:24:21.050Z,102385.73
2018-12-14T16:29:24.097Z,102381.45
2018-12-14T16:34:27.119Z,102382.30
2018-12-14T16:39:30.405Z,102381.88
2018-12-14T16:44:33.267Z,102389.16
2018-12-14T16:49:36.008Z,102382.27
2018-12-14T16:54:39.303Z,102385.70
2018-12-14T16:59:42.388Z,102386.16
2018-12-14T17:04:45.720Z,102385.70
2018-12-14T17:09:48.923Z,102391.73
2018-12-14T17:14:51.778Z,102395.58
2018-12-14T17:19:55.005Z,102405.42
2018-12-14T17:24:58.065Z,102404.14
2018-12-14T17:30:00.833Z,102401.14
2018-12-14T17:35:04.480Z,102402.85
2018-12-14T17:40:07.371Z,102403.28
2018-12-14T17:45:12.198Z,102405.44
2018-12-14T17:50:15.003Z,102399.02
2018-12-14T17:55:17.914Z,102402.44
2018-12-14T18:00:20.664Z,102412.71
2018-12-14T18:05:23.747Z,102417.45
2018-12-14T18:10:26.496Z,102415.73
2018-12-14T18:15:29.416Z,102410.16
2018-12-14T18:20:32.052Z,102413.19
2018-12-14T18:25:34.976Z,102415.75
2018-12-14T18:30:37.773Z,102417.89
2018-12-14T18:35:40.582Z,102419.59
2018-12-14T18:40:43.479Z,102428.59
2018-12-14T18:45:52.951Z,102432.86
2018-12-14T18:50:51.254Z,102433.30
2018-12-14T18:55:54.092Z,102444.00
2018-12-14T19:00:57.036Z,102443.56
2018-12-14T19:06:00.088Z,102443.99
2018-12-14T19:11:02.984Z,102439.73
2018-12-14T19:16:06.070Z,102439.29
2018-12-14T19:21:08.796Z,102449.16
2018-12-14T19:26:11.810Z,102451.29
2018-12-14T19:31:14.537Z,102458.59
2018-12-14T19:36:17.603Z,102462.86
2018-12-14T19:41:20.603Z,102467.14
2018-12-14T19:46:26.493Z,102473.55
2018-12-14T19:51:29.565Z,102470.56
2018-12-14T19:56:32.479Z,102470.98
2018-12-14T20:01:35.638Z,102470.58
2018-12-14T20:06:38.518Z,102469.27
2018-12-14T20:11:41.399Z,102473.13
2018-12-14T20:16:44.168Z,102480.83
2018-12-14T20:21:47.092Z,102480.00
2018-12-14T20:26:52.814Z,102498.39
2018-12-14T20:31:55.892Z,102501.37
2018-12-14T20:36:58.774Z,102499.23
2018-12-14T20:42:01.698Z,102505.67
2018-12-14T20:47:04.573Z,102512.08
2018-12-14T20:52:07.586Z,102503.53
2018-12-14T20:57:13.107Z,102507.39
2018-12-14T21:02:15.898Z,102503.52
2018-12-14T21:07:18.956Z,102510.80
2018-12-14T21:12:21.815Z,102505.24
2018-12-14T21:17:24.567Z,102499.27
2018-12-14T21:22:27.260Z,102496.23
2018-12-14T21:27:30.418Z,102508.23
2018-12-14T21:32:33.325Z,102511.23
2018-12-14T21:37:36.121Z,102510.38
2018-12-14T21:42:39.002Z,102505.25
2018-12-14T21:47:41.765Z,102506.09
2018-12-14T21:52:44.537Z,102500.97
2018-12-14T21:57:47.552Z,102497.52
2018-12-14T22:02:50.421Z,102499.25
2018-12-14T22:07:52.961Z,102503.11
2018-12-14T22:12:55.845Z,102507.79
2018-12-14T22:17:58.688Z,102499.68
2018-12-14T22:23:01.526Z,102506.97
2018-12-14T22:28:04.434Z,102509.52
2018-12-14T22:33:07.484Z,102500.95
2018-12-14T22:38:10.269Z,102506.09
2018-12-14T22:43:13.155Z,102503.11
2018-12-14T22:48:15.999Z,102502.25
2018-12-14T22:53:18.887Z,102503.97
2018-12-14T22:58:21.683Z,102503.96
2018-12-14T23:03:24.616Z,102495.81
2018-12-14T23:08:28.598Z,102502.23
2018-12-14T23:13:31.549Z,102498.81
2018-12-14T23:18:34.224Z,102505.67
2018-12-14T23:23:37.101Z,102509.95
2018-12-14T23:28:40.062Z,102509.94
2018-12-14T23:33:42.849Z,102507.36
2018-12-14T23:38:45.610Z,102510.80
2018-12-14T23:43:48.442Z,102514.64
2018-12-14T23:48:51.212Z,102511.23
2018-12-14T23:53:54.274Z,102518.06
2018-12-14T23:58:56.975Z,102520.20
